PDT,Max TemperatureF,Mean TemperatureF,Min TemperatureF,Max Dew PointF,MeanDew PointF,Min DewpointF,Max Humidity, Mean Humidity, Min Humidity, Max Sea Level PressureIn, Mean Sea Level PressureIn, Min Sea Level PressureIn, Max VisibilityMiles, Mean VisibilityMiles, Min VisibilityMiles, Max Wind SpeedMPH, Mean Wind SpeedMPH, Max Gust SpeedMPH,PrecipitationIn, CloudCover, Events, WindDirDegrees
2012-10-1,85,66,47,45,42,38,71,46,20,30.21,30.14,30.06,10,10,8,14,2,17,0.00,0,,353
2012-10-2,79,65,50,54,44,34,77,48,19,30.13,30.09,30.03,10,10,9,21,4,26,0.00,2,,352
2012-10-3,77,59,41,42,35,25,82,50,18,30.13,30.06,29.97,10,10,10,12,3,17,0.00,0,,359
2012-10-4,77,58,39,34,32,28,76,47,18,30.14,30.09,30.05,10,10,10,10,2,13,0.00,0,,357
2012-10-5,73,56,39,46,36,31,79,51,22,30.16,30.11,30.05,10,10,10,12,2,15,0.00,0,,345
2012-10-6,75,58,41,46,41,37,89,58,27,30.15,30.07,29.97,10,10,10,10,2,14,0.00,0,,352
2012-10-7,81,61,40,40,36,27,85,50,15,30.05,29.97,29.88,10,10,10,12,1,14,0.00,0,,358
2012-10-8,75,59,42,44,40,36,82,56,29,30.07,30.00,29.95,10,10,10,12,2,16,0.00,0,,342
2012-10-9,72,57,41,44,41,37,89,60,31,30.11,30.05,29.97,10,10,10,10,2,13,0.00,1,,358
2012-10-10,76,59,41,47,42,37,83,58,33,30.05,29.97,29.87,10,10,10,10,1,14,0.00,0,,16
2012-10-11,75,59,42,47,44,40,92,64,35,29.96,29.90,29.78,10,10,7,8,1,10,0.00,0,,326
2012-10-12,60,55,49,54,48,45,93,79,64,30.16,30.02,29.91,10,8,2,7,1,8,0.25,7,Rain,300
2012-10-13,75,65,55,57,54,53,100,75,49,30.27,30.22,30.17,10,8,3,10,1,15,0.01,6,Rain,280
2012-10-14,72,62,52,57,54,52,100,77,53,30.19,30.14,30.02,10,5,0,6,2,8,0.03,6,Fog-Rain,169
2012-10-15,74,67,59,63,60,56,100,77,53,30.05,29.94,29.86,10,7,1,15,3,23,0.59,8,Rain,163
2012-10-16,65,55,45,63,51,42,87,68,48,30.28,30.09,29.87,10,9,2,15,3,18,0.11,5,Rain,345
2012-10-17,62,52,41,46,42,39,100,74,48,30.30,30.23,30.15,10,7,0,8,1,25,0.00,3,Fog,10
2012-10-18,73,57,41,52,44,41,100,71,41,30.19,30.07,29.94,10,5,0,6,1,7,0.00,4,Fog,200
2012-10-19,72,63,53,56,53,47,93,67,41,30.00,29.96,29.92,10,9,2,15,2,17,0.05,7,Rain,41
2012-10-20,57,49,40,55,45,37,100,77,54,30.05,30.00,29.96,10,10,4,12,2,15,0.04,5,Rain,349
2012-10-21,52,45,38,45,41,37,100,87,74,29.99,29.90,29.73,10,8,0,9,0,10,0.10,7,Fog-Rain,330
2012-10-22,54,48,41,45,41,35,96,75,54,29.77,29.69,29.61,10,8,4,16,3,24,0.37,7,Rain,177
2012-10-23,52,47,42,43,40,36,92,73,54,29.94,29.89,29.78,10,9,4,14,3,20,0.16,7,Rain,170
2012-10-24,53,47,41,43,40,38,92,76,59,30.23,30.04,29.91,10,10,7,14,2,20,0.14,7,Rain,175
2012-10-25,60,50,39,43,40,37,100,74,47,30.41,30.33,30.22,10,7,0,9,1,12,0.02,4,Fog-Rain,292
2012-10-26,67,56,45,49,46,42,93,71,48,30.30,30.23,30.15,,,,7,1,10,0.01,5,,335
2012-10-27,60,55,50,56,52,47,96,88,80,30.18,30.12,30.07,10,10,7,7,1,8,0.07,8,Rain,151
2012-10-28,71,64,57,60,57,55,93,80,66,30.06,30.00,29.96,10,10,4,9,1,14,0.04,8,Rain,162
2012-10-29,71,64,56,59,57,55,100,79,57,30.10,30.04,30.00,10,10,5,15,1,74,0.02,4,Rain,299
2012-10-30,70,61,52,57,54,50,100,77,53,30.01,29.92,29.79,10,9,6,8,1,15,0.00,3,,161
2012-10-31,59,54,49,54,50,46,100,81,62,29.81,29.75,29.70,10,8,2,16,4,22,0.37,5,Rain,155